sensor_id;sensor_type;location;lat;lon;timestamp;temperature;humidity
26503;DHT22;14177;51.520;6.764;2023-07-29T00:01:38;19.70;99.90
26503;DHT22;14177;51.520;6.764;2023-07-29T00:04:08;19.60;99.90
26503;DHT22;14177;51.520;6.764;2023-07-29T00:06:36;19.60;99.90
26503;DHT22;14177;51.520;6.764;2023-07-29T00:09:03;19.60;99.90
26503;DHT22;14177;51.520;6.764;2023-07-29T00:11:31;19.50;99.90
26503;DHT22;14177;51.520;6.764;2023-07-29T00:14:01;19.50;99.90
26503;DHT22;14177;51.520;6.764;2023-07-29T00:16:28;19.50;99.90
26503;DHT22;14177;51.520;6.764;2023-07-29T00:18:55;19.50;99.90
26503;DHT22;14177;51.520;6.764;2023-07-29T00:21:22;19.50;99.90
26503;DHT22;14177;51.520;6.764;2023-07-29T00:23:49;19.50;99.90
26503;DHT22;14177;51.520;6.764;2023-07-29T00:26:16;19.50;99.90
26503;DHT22;14177;51.520;6.764;2023-07-29T00:28:43;19.50;99.90
26503;DHT22;14177;51.520;6.764;2023-07-29T00:31:10;19.50;99.90
26503;DHT22;14177;51.520;6.764;2023-07-29T00:33:37;19.50;99.90
26503;DHT22;14177;51.520;6.764;2023-07-29T00:36:04;19.50;99.90
26503;DHT22;14177;51.520;6.764;2023-07-29T00:38:31;19.50;99.90
26503;DHT22;14177;51.520;6.764;2023-07-29T00:41:00;19.60;99.90
26503;DHT22;14177;51.520;6.764;2023-07-29T00:43:29;19.60;99.90
26503;DHT22;14177;51.520;6.764;2023-07-29T00:45:56;19.60;99.90
26503;DHT22;14177;51.520;6.764;2023-07-29T00:48:25;19.60;99.90
26503;DHT22;14177;51.520;6.764;2023-07-29T00:50:54;19.60;99.90
26503;DHT22;14177;51.520;6.764;2023-07-29T00:53:22;19.60;99.90
26503;DHT22;14177;51.520;6.764;2023-07-29T00:55:49;19.60;99.90
26503;DHT22;14177;51.520;6.764;2023-07-29T00:58:16;19.70;99.90
26503;DHT22;14177;51.520;6.764;2023-07-29T01:00:43;19.70;99.90
26503;DHT22;14177;51.520;6.764;2023-07-29T01:03:11;19.70;99.90
26503;DHT22;14177;51.520;6.764;2023-07-29T01:06:01;19.70;99.90
26503;DHT22;14177;51.520;6.764;2023-07-29T01:09:06;19.70;99.90
26503;DHT22;14177;51.520;6.764;2023-07-29T01:12:06;19.70;99.90
26503;DHT22;14177;51.520;6.764;2023-07-29T01:17:45;19.70;99.90
26503;DHT22;14177;51.520;6.764;2023-07-29T01:20:15;19.70;99.90
26503;DHT22;14177;51.520;6.764;2023-07-29T01:22:44;19.80;99.90
26503;DHT22;14177;51.520;6.764;2023-07-29T01:25:11;19.70;99.90
26503;DHT22;14177;51.520;6.764;2023-07-29T01:27:38;19.80;99.90
26503;DHT22;14177;51.520;6.764;2023-07-29T01:30:07;19.80;99.90
26503;DHT22;14177;51.520;6.764;2023-07-29T01:32:43;19.80;99.90
26503;DHT22;14177;51.520;6.764;2023-07-29T01:35:39;19.80;99.90
26503;DHT22;14177;51.520;6.764;2023-07-29T01:38:35;19.80;99.90
26503;DHT22;14177;51.520;6.764;2023-07-29T01:41:04;19.80;99.90
26503;DHT22;14177;51.520;6.764;2023-07-29T01:43:34;19.80;99.90
26503;DHT22;14177;51.520;6.764;2023-07-29T01:46:06;19.80;99.90
26503;DHT22;14177;51.520;6.764;2023-07-29T01:48:33;19.90;99.90
26503;DHT22;14177;51.520;6.764;2023-07-29T01:51:00;19.90;99.90
26503;DHT22;14177;51.520;6.764;2023-07-29T01:53:28;19.90;99.90
26503;DHT22;14177;51.520;6.764;2023-07-29T01:55:55;19.90;99.90
26503;DHT22;14177;51.520;6.764;2023-07-29T01:58:24;20.00;99.90
26503;DHT22;14177;51.520;6.764;2023-07-29T02:00:51;20.00;99.90
26503;DHT22;14177;51.520;6.764;2023-07-29T02:03:18;20.00;99.90
26503;DHT22;14177;51.520;6.764;2023-07-29T02:05:45;20.00;99.90
26503;DHT22;14177;51.520;6.764;2023-07-29T02:08:12;20.00;99.90
26503;DHT22;14177;51.520;6.764;2023-07-29T02:10:40;20.00;99.90
26503;DHT22;14177;51.520;6.764;2023-07-29T02:13:07;20.00;99.90
26503;DHT22;14177;51.520;6.764;2023-07-29T02:15:35;20.00;99.90
26503;DHT22;14177;51.520;6.764;2023-07-29T02:18:03;20.10;99.90
26503;DHT22;14177;51.520;6.764;2023-07-29T02:20:30;20.00;99.90
26503;DHT22;14177;51.520;6.764;2023-07-29T02:22:57;20.10;99.90
26503;DHT22;14177;51.520;6.764;2023-07-29T02:25:24;20.10;99.90
26503;DHT22;14177;51.520;6.764;2023-07-29T02:27:51;20.10;99.90
26503;DHT22;14177;51.520;6.764;2023-07-29T02:30:18;20.10;99.90
26503;DHT22;14177;51.520;6.764;2023-07-29T02:32:45;20.10;99.90
26503;DHT22;14177;51.520;6.764;2023-07-29T02:35:12;20.10;99.90
26503;DHT22;14177;51.520;6.764;2023-07-29T02:37:39;20.10;99.90
26503;DHT22;14177;51.520;6.764;2023-07-29T02:40:07;20.20;99.90
26503;DHT22;14177;51.520;6.764;2023-07-29T02:42:34;20.20;99.90
26503;DHT22;14177;51.520;6.764;2023-07-29T02:45:01;20.20;99.90
26503;DHT22;14177;51.520;6.764;2023-07-29T02:47:28;20.20;99.90
26503;DHT22;14177;51.520;6.764;2023-07-29T02:49:56;20.20;99.90
26503;DHT22;14177;51.520;6.764;2023-07-29T02:52:23;20.20;99.90
26503;DHT22;14177;51.520;6.764;2023-07-29T02:54:50;20.10;99.90
26503;DHT22;14177;51.520;6.764;2023-07-29T02:57:17;20.10;99.90
26503;DHT22;14177;51.520;6.764;2023-07-29T02:59:44;20.10;99.90
26503;DHT22;14177;51.520;6.764;2023-07-29T03:02:12;20.00;99.90
26503;DHT22;14177;51.520;6.764;2023-07-29T03:04:38;20.00;99.90
26503;DHT22;14177;51.520;6.764;2023-07-29T03:07:05;20.00;99.90
26503;DHT22;14177;51.520;6.764;2023-07-29T03:09:32;19.90;99.90
26503;DHT22;14177;51.520;6.764;2023-07-29T03:12:00;19.90;99.90
26503;DHT22;14177;51.520;6.764;2023-07-29T03:14:28;19.80;99.90
26503;DHT22;14177;51.520;6.764;2023-07-29T03:16:55;19.80;99.90
26503;DHT22;14177;51.520;6.764;2023-07-29T03:19:22;19.80;99.90
26503;DHT22;14177;51.520;6.764;2023-07-29T03:21:49;19.80;99.90
26503;DHT22;14177;51.520;6.764;2023-07-29T03:24:16;19.90;99.90
26503;DHT22;14177;51.520;6.764;2023-07-29T03:26:43;19.80;99.90
26503;DHT22;14177;51.520;6.764;2023-07-29T03:29:12;19.80;99.90
26503;DHT22;14177;51.520;6.764;2023-07-29T03:31:39;19.80;99.90
26503;DHT22;14177;51.520;6.764;2023-07-29T03:34:06;19.80;99.90
26503;DHT22;14177;51.520;6.764;2023-07-29T03:36:34;19.80;99.90
26503;DHT22;14177;51.520;6.764;2023-07-29T03:39:01;19.70;99.90
26503;DHT22;14177;51.520;6.764;2023-07-29T03:41:30;19.70;99.90
26503;DHT22;14177;51.520;6.764;2023-07-29T03:43:57;19.70;99.90
26503;DHT22;14177;51.520;6.764;2023-07-29T03:46:24;19.50;99.90
26503;DHT22;14177;51.520;6.764;2023-07-29T03:48:51;19.50;99.90
26503;DHT22;14177;51.520;6.764;2023-07-29T03:51:19;19.40;99.90
26503;DHT22;14177;51.520;6.764;2023-07-29T03:53:46;19.40;99.90
26503;DHT22;14177;51.520;6.764;2023-07-29T03:56:13;19.30;99.90
26503;DHT22;14177;51.520;6.764;2023-07-29T03:58:40;19.30;99.90
26503;DHT22;14177;51.520;6.764;2023-07-29T04:01:07;19.20;99.90
26503;DHT22;14177;51.520;6.764;2023-07-29T04:03:34;19.20;99.90
26503;DHT22;14177;51.520;6.764;2023-07-29T04:06:01;19.20;99.90
26503;DHT22;14177;51.520;6.764;2023-07-29T04:08:28;19.10;99.90
26503;DHT22;14177;51.520;6.764;2023-07-29T04:10:55;19.00;99.90
26503;DHT22;14177;51.520;6.764;2023-07-29T04:13:22;19.10;99.90
26503;DHT22;14177;51.520;6.764;2023-07-29T04:15:49;19.00;99.90
26503;DHT22;14177;51.520;6.764;2023-07-29T04:18:16;19.00;99.90
26503;DHT22;14177;51.520;6.764;2023-07-29T04:20:46;18.90;99.90
26503;DHT22;14177;51.520;6.764;2023-07-29T04:23:13;18.90;99.90
26503;DHT22;14177;51.520;6.764;2023-07-29T04:25:40;18.90;99.90
26503;DHT22;14177;51.520;6.764;2023-07-29T04:28:07;18.90;99.90
26503;DHT22;14177;51.520;6.764;2023-07-29T04:30:34;18.90;99.90
26503;DHT22;14177;51.520;6.764;2023-07-29T04:33:01;18.90;99.90
26503;DHT22;14177;51.520;6.764;2023-07-29T04:35:28;18.80;99.90
26503;DHT22;14177;51.520;6.764;2023-07-29T04:37:55;18.80;99.90
26503;DHT22;14177;51.520;6.764;2023-07-29T04:40:22;18.70;99.90
26503;DHT22;14177;51.520;6.764;2023-07-29T04:42:50;18.70;99.90
26503;DHT22;14177;51.520;6.764;2023-07-29T04:45:18;18.60;99.90
26503;DHT22;14177;51.520;6.764;2023-07-29T04:47:45;18.60;99.90
26503;DHT22;14177;51.520;6.764;2023-07-29T04:50:12;18.50;99.90
26503;DHT22;14177;51.520;6.764;2023-07-29T04:52:39;18.40;99.90
26503;DHT22;14177;51.520;6.764;2023-07-29T04:55:06;18.30;99.90
26503;DHT22;14177;51.520;6.764;2023-07-29T04:57:33;18.30;99.90
26503;DHT22;14177;51.520;6.764;2023-07-29T05:00:00;18.30;99.90
26503;DHT22;14177;51.520;6.764;2023-07-29T05:02:29;18.30;99.90
26503;DHT22;14177;51.520;6.764;2023-07-29T05:04:56;18.30;99.90
26503;DHT22;14177;51.520;6.764;2023-07-29T05:07:23;18.30;99.90
26503;DHT22;14177;51.520;6.764;2023-07-29T05:09:51;18.30;99.90
26503;DHT22;14177;51.520;6.764;2023-07-29T05:12:18;18.40;99.90
26503;DHT22;14177;51.520;6.764;2023-07-29T05:14:45;18.40;99.90
26503;DHT22;14177;51.520;6.764;2023-07-29T05:17:12;18.30;99.90
26503;DHT22;14177;51.520;6.764;2023-07-29T05:19:39;18.40;99.90
26503;DHT22;14177;51.520;6.764;2023-07-29T05:22:06;18.40;99.90
26503;DHT22;14177;51.520;6.764;2023-07-29T05:24:33;18.40;99.90
26503;DHT22;14177;51.520;6.764;2023-07-29T05:26:59;18.30;99.90
26503;DHT22;14177;51.520;6.764;2023-07-29T05:29:26;18.40;99.90
26503;DHT22;14177;51.520;6.764;2023-07-29T05:31:53;18.30;99.90
26503;DHT22;14177;51.520;6.764;2023-07-29T05:34:20;18.40;99.90
26503;DHT22;14177;51.520;6.764;2023-07-29T05:36:48;18.40;99.90
26503;DHT22;14177;51.520;6.764;2023-07-29T05:39:15;18.40;99.90
26503;DHT22;14177;51.520;6.764;2023-07-29T05:41:41;18.40;99.90
26503;DHT22;14177;51.520;6.764;2023-07-29T05:44:08;18.40;99.90
26503;DHT22;14177;51.520;6.764;2023-07-29T05:46:36;18.40;99.90
26503;DHT22;14177;51.520;6.764;2023-07-29T05:49:04;18.40;99.90
26503;DHT22;14177;51.520;6.764;2023-07-29T05:51:31;18.50;99.90
26503;DHT22;14177;51.520;6.764;2023-07-29T05:53:58;18.50;99.90
26503;DHT22;14177;51.520;6.764;2023-07-29T05:56:25;18.40;99.90
26503;DHT22;14177;51.520;6.764;2023-07-29T05:58:52;18.40;99.90
26503;DHT22;14177;51.520;6.764;2023-07-29T06:01:19;18.50;99.90
26503;DHT22;14177;51.520;6.764;2023-07-29T06:03:48;18.50;99.90
26503;DHT22;14177;51.520;6.764;2023-07-29T06:06:15;18.50;99.90
26503;DHT22;14177;51.520;6.764;2023-07-29T06:08:42;18.50;99.90
26503;DHT22;14177;51.520;6.764;2023-07-29T06:11:09;18.40;99.90
26503;DHT22;14177;51.520;6.764;2023-07-29T06:13:36;18.40;99.90
26503;DHT22;14177;51.520;6.764;2023-07-29T06:16:04;18.40;99.90
26503;DHT22;14177;51.520;6.764;2023-07-29T06:18:30;18.50;99.90
26503;DHT22;14177;51.520;6.764;2023-07-29T06:20:57;18.50;99.90
26503;DHT22;14177;51.520;6.764;2023-07-29T06:23:24;18.60;99.90
26503;DHT22;14177;51.520;6.764;2023-07-29T06:25:51;18.60;99.90
26503;DHT22;14177;51.520;6.764;2023-07-29T06:28:18;18.60;99.90
26503;DHT22;14177;51.520;6.764;2023-07-29T06:30:45;18.70;99.90
26503;DHT22;14177;51.520;6.764;2023-07-29T06:33:12;18.70;99.90
26503;DHT22;14177;51.520;6.764;2023-07-29T06:35:39;18.70;99.90
26503;DHT22;14177;51.520;6.764;2023-07-29T06:38:08;18.80;99.90
26503;DHT22;14177;51.520;6.764;2023-07-29T06:40:35;18.70;99.90
26503;DHT22;14177;51.520;6.764;2023-07-29T06:43:02;18.70;99.90
26503;DHT22;14177;51.520;6.764;2023-07-29T06:45:29;18.80;99.90
26503;DHT22;14177;51.520;6.764;2023-07-29T06:47:56;18.80;99.90
26503;DHT22;14177;51.520;6.764;2023-07-29T06:50:23;18.80;99.90
26503;DHT22;14177;51.520;6.764;2023-07-29T06:52:50;18.80;99.90
26503;DHT22;14177;51.520;6.764;2023-07-29T06:55:17;19.00;99.90
26503;DHT22;14177;51.520;6.764;2023-07-29T06:57:44;19.00;99.90
26503;DHT22;14177;51.520;6.764;2023-07-29T07:00:11;19.10;99.90
26503;DHT22;14177;51.520;6.764;2023-07-29T07:02:38;19.20;99.90
26503;DHT22;14177;51.520;6.764;2023-07-29T07:05:05;19.30;99.90
26503;DHT22;14177;51.520;6.764;2023-07-29T07:07:32;19.40;99.90
26503;DHT22;14177;51.520;6.764;2023-07-29T07:09:59;19.50;99.90
26503;DHT22;14177;51.520;6.764;2023-07-29T07:12:27;19.50;99.90
26503;DHT22;14177;51.520;6.764;2023-07-29T07:14:54;19.70;99.90
26503;DHT22;14177;51.520;6.764;2023-07-29T07:17:21;19.80;99.90
26503;DHT22;14177;51.520;6.764;2023-07-29T07:19:48;19.90;99.90
26503;DHT22;14177;51.520;6.764;2023-07-29T07:22:16;19.90;99.90
26503;DHT22;14177;51.520;6.764;2023-07-29T07:24:44;19.80;99.90
26503;DHT22;14177;51.520;6.764;2023-07-29T07:27:11;19.80;99.90
26503;DHT22;14177;51.520;6.764;2023-07-29T07:29:38;19.70;99.90
26503;DHT22;14177;51.520;6.764;2023-07-29T07:32:05;19.70;99.90
26503;DHT22;14177;51.520;6.764;2023-07-29T07:34:32;19.70;99.90
26503;DHT22;14177;51.520;6.764;2023-07-29T07:37:00;19.80;99.90
26503;DHT22;14177;51.520;6.764;2023-07-29T07:39:27;19.90;99.90
26503;DHT22;14177;51.520;6.764;2023-07-29T07:41:54;20.00;99.90
26503;DHT22;14177;51.520;6.764;2023-07-29T07:44:21;20.20;99.90
26503;DHT22;14177;51.520;6.764;2023-07-29T07:46:48;20.50;99.90
26503;DHT22;14177;51.520;6.764;2023-07-29T07:49:15;20.60;99.90
26503;DHT22;14177;51.520;6.764;2023-07-29T07:51:43;20.70;99.90
26503;DHT22;14177;51.520;6.764;2023-07-29T07:54:10;20.60;99.90
26503;DHT22;14177;51.520;6.764;2023-07-29T07:56:37;20.70;99.90
26503;DHT22;14177;51.520;6.764;2023-07-29T07:59:05;20.70;99.90
26503;DHT22;14177;51.520;6.764;2023-07-29T08:01:36;20.90;99.90
26503;DHT22;14177;51.520;6.764;2023-07-29T08:04:04;21.10;99.90
26503;DHT22;14177;51.520;6.764;2023-07-29T08:06:33;21.00;99.90
26503;DHT22;14177;51.520;6.764;2023-07-29T08:09:00;20.90;99.90
26503;DHT22;14177;51.520;6.764;2023-07-29T08:11:28;20.90;99.90
26503;DHT22;14177;51.520;6.764;2023-07-29T08:13:55;21.10;99.90
26503;DHT22;14177;51.520;6.764;2023-07-29T08:16:22;21.30;99.90
26503;DHT22;14177;51.520;6.764;2023-07-29T08:18:49;21.60;99.90
26503;DHT22;14177;51.520;6.764;2023-07-29T08:21:16;21.70;99.90
26503;DHT22;14177;51.520;6.764;2023-07-29T08:23:43;22.00;99.90
26503;DHT22;14177;51.520;6.764;2023-07-29T08:26:10;21.90;99.90
26503;DHT22;14177;51.520;6.764;2023-07-29T08:28:38;22.00;99.90
26503;DHT22;14177;51.520;6.764;2023-07-29T08:31:06;22.20;99.90
26503;DHT22;14177;51.520;6.764;2023-07-29T08:33:33;22.30;99.90
26503;DHT22;14177;51.520;6.764;2023-07-29T08:36:02;22.30;99.90
26503;DHT22;14177;51.520;6.764;2023-07-29T08:38:29;22.70;99.90
26503;DHT22;14177;51.520;6.764;2023-07-29T08:41:25;23.00;99.90
26503;DHT22;14177;51.520;6.764;2023-07-29T08:44:16;23.30;99.90
26503;DHT22;14177;51.520;6.764;2023-07-29T08:46:47;23.20;99.90
26503;DHT22;14177;51.520;6.764;2023-07-29T08:49:16;22.90;99.90
26503;DHT22;14177;51.520;6.764;2023-07-29T08:51:49;22.90;99.90
26503;DHT22;14177;51.520;6.764;2023-07-29T08:54:18;23.30;99.90
26503;DHT22;14177;51.520;6.764;2023-07-29T08:56:46;23.30;99.90
26503;DHT22;14177;51.520;6.764;2023-07-29T08:59:13;23.50;99.90
26503;DHT22;14177;51.520;6.764;2023-07-29T09:01:43;23.50;99.90
26503;DHT22;14177;51.520;6.764;2023-07-29T09:04:10;23.30;99.90
26503;DHT22;14177;51.520;6.764;2023-07-29T09:06:39;23.00;99.90
26503;DHT22;14177;51.520;6.764;2023-07-29T09:09:07;22.90;99.90
26503;DHT22;14177;51.520;6.764;2023-07-29T09:11:35;22.70;99.90
26503;DHT22;14177;51.520;6.764;2023-07-29T09:14:02;22.60;99.90
26503;DHT22;14177;51.520;6.764;2023-07-29T09:16:30;22.50;99.90
26503;DHT22;14177;51.520;6.764;2023-07-29T09:19:01;22.60;99.90
26503;DHT22;14177;51.520;6.764;2023-07-29T09:21:29;22.50;99.90
26503;DHT22;14177;51.520;6.764;2023-07-29T09:24:03;22.50;99.90
26503;DHT22;14177;51.520;6.764;2023-07-29T09:26:34;22.50;99.90
26503;DHT22;14177;51.520;6.764;2023-07-29T09:29:02;22.40;99.90
26503;DHT22;14177;51.520;6.764;2023-07-29T09:31:30;22.20;99.90
26503;DHT22;14177;51.520;6.764;2023-07-29T09:34:02;21.90;99.90
26503;DHT22;14177;51.520;6.764;2023-07-29T09:36:31;21.80;99.90
26503;DHT22;14177;51.520;6.764;2023-07-29T09:39:00;21.60;99.90
26503;DHT22;14177;51.520;6.764;2023-07-29T09:41:28;21.70;99.90
26503;DHT22;14177;51.520;6.764;2023-07-29T09:44:01;21.90;99.90
26503;DHT22;14177;51.520;6.764;2023-07-29T09:46:36;22.00;99.90
26503;DHT22;14177;51.520;6.764;2023-07-29T09:49:07;22.20;99.90
26503;DHT22;14177;51.520;6.764;2023-07-29T09:51:38;22.30;99.90
26503;DHT22;14177;51.520;6.764;2023-07-29T09:54:06;22.50;99.90
26503;DHT22;14177;51.520;6.764;2023-07-29T09:56:39;22.60;99.90
26503;DHT22;14177;51.520;6.764;2023-07-29T09:59:10;22.80;99.90
26503;DHT22;14177;51.520;6.764;2023-07-29T10:01:39;22.80;99.90
26503;DHT22;14177;51.520;6.764;2023-07-29T10:04:07;23.00;99.90
26503;DHT22;14177;51.520;6.764;2023-07-29T10:06:41;23.20;99.90
26503;DHT22;14177;51.520;6.764;2023-07-29T10:09:11;23.30;99.90
26503;DHT22;14177;51.520;6.764;2023-07-29T10:11:40;23.60;99.90
26503;DHT22;14177;51.520;6.764;2023-07-29T10:14:08;24.10;99.90
26503;DHT22;14177;51.520;6.764;2023-07-29T10:16:40;24.10;99.90
26503;DHT22;14177;51.520;6.764;2023-07-29T10:19:09;24.40;99.90
26503;DHT22;14177;51.520;6.764;2023-07-29T10:21:39;24.50;99.90
26503;DHT22;14177;51.520;6.764;2023-07-29T10:24:11;24.70;99.90
26503;DHT22;14177;51.520;6.764;2023-07-29T10:26:46;24.80;99.90
26503;DHT22;14177;51.520;6.764;2023-07-29T10:29:19;24.90;99.90
26503;DHT22;14177;51.520;6.764;2023-07-29T10:31:53;25.10;99.90
26503;DHT22;14177;51.520;6.764;2023-07-29T10:34:21;24.90;99.90
26503;DHT22;14177;51.520;6.764;2023-07-29T10:36:50;24.60;99.90
26503;DHT22;14177;51.520;6.764;2023-07-29T10:39:19;24.90;99.90
26503;DHT22;14177;51.520;6.764;2023-07-29T10:41:56;24.70;99.90
26503;DHT22;14177;51.520;6.764;2023-07-29T10:47:14;24.90;99.90
26503;DHT22;14177;51.520;6.764;2023-07-29T10:49:50;25.40;99.90
26503;DHT22;14177;51.520;6.764;2023-07-29T10:52:50;24.90;99.90
26503;DHT22;14177;51.520;6.764;2023-07-29T10:57:52;24.60;99.90
26503;DHT22;14177;51.520;6.764;2023-07-29T11:00:31;24.70;99.90
26503;DHT22;14177;51.520;6.764;2023-07-29T11:03:03;25.00;99.90
26503;DHT22;14177;51.520;6.764;2023-07-29T11:05:48;24.90;99.90
26503;DHT22;14177;51.520;6.764;2023-07-29T11:08:22;24.70;99.90
26503;DHT22;14177;51.520;6.764;2023-07-29T11:11:12;24.80;99.90
26503;DHT22;14177;51.520;6.764;2023-07-29T11:13:39;24.70;99.90
26503;DHT22;14177;51.520;6.764;2023-07-29T11:16:06;24.60;99.90
26503;DHT22;14177;51.520;6.764;2023-07-29T11:18:35;24.60;99.90
26503;DHT22;14177;51.520;6.764;2023-07-29T11:21:03;24.50;99.90
26503;DHT22;14177;51.520;6.764;2023-07-29T11:23:33;24.40;99.90
26503;DHT22;14177;51.520;6.764;2023-07-29T11:26:03;24.20;99.90
26503;DHT22;14177;51.520;6.764;2023-07-29T11:28:31;24.00;99.90
26503;DHT22;14177;51.520;6.764;2023-07-29T11:31:05;24.20;99.90
26503;DHT22;14177;51.520;6.764;2023-07-29T11:33:32;24.40;99.90
26503;DHT22;14177;51.520;6.764;2023-07-29T11:35:59;24.30;99.90
26503;DHT22;14177;51.520;6.764;2023-07-29T11:38:26;24.40;99.90
26503;DHT22;14177;51.520;6.764;2023-07-29T11:41:01;24.60;99.90
26503;DHT22;14177;51.520;6.764;2023-07-29T11:43:35;24.70;99.90
26503;DHT22;14177;51.520;6.764;2023-07-29T11:46:03;24.40;99.90
26503;DHT22;14177;51.520;6.764;2023-07-29T11:48:33;24.60;99.90
26503;DHT22;14177;51.520;6.764;2023-07-29T11:51:02;24.50;99.90
26503;DHT22;14177;51.520;6.764;2023-07-29T11:53:30;24.80;99.90
26503;DHT22;14177;51.520;6.764;2023-07-29T11:55:58;25.00;99.90
26503;DHT22;14177;51.520;6.764;2023-07-29T11:58:26;25.20;99.90
26503;DHT22;14177;51.520;6.764;2023-07-29T12:00:53;25.40;99.90
26503;DHT22;14177;51.520;6.764;2023-07-29T12:03:20;25.10;99.90
26503;DHT22;14177;51.520;6.764;2023-07-29T12:05:49;24.90;99.90
26503;DHT22;14177;51.520;6.764;2023-07-29T12:08:16;25.10;99.90
26503;DHT22;14177;51.520;6.764;2023-07-29T12:10:43;25.20;99.90
26503;DHT22;14177;51.520;6.764;2023-07-29T12:13:11;25.10;99.90
26503;DHT22;14177;51.520;6.764;2023-07-29T12:15:39;25.20;99.90
26503;DHT22;14177;51.520;6.764;2023-07-29T12:18:07;24.50;99.90
26503;DHT22;14177;51.520;6.764;2023-07-29T12:20:34;24.50;99.90
26503;DHT22;14177;51.520;6.764;2023-07-29T12:23:01;24.50;99.90
26503;DHT22;14177;51.520;6.764;2023-07-29T12:25:30;24.50;99.90
26503;DHT22;14177;51.520;6.764;2023-07-29T12:28:10;24.70;99.90
26503;DHT22;14177;51.520;6.764;2023-07-29T12:30:43;24.90;99.90
26503;DHT22;14177;51.520;6.764;2023-07-29T12:33:10;25.40;99.90
26503;DHT22;14177;51.520;6.764;2023-07-29T12:35:37;25.20;99.90
26503;DHT22;14177;51.520;6.764;2023-07-29T12:38:05;25.20;99.90
26503;DHT22;14177;51.520;6.764;2023-07-29T12:40:32;25.30;99.90
26503;DHT22;14177;51.520;6.764;2023-07-29T12:42:59;24.90;99.90
26503;DHT22;14177;51.520;6.764;2023-07-29T12:45:27;25.00;99.90
26503;DHT22;14177;51.520;6.764;2023-07-29T12:47:56;25.00;99.90
26503;DHT22;14177;51.520;6.764;2023-07-29T12:50:23;24.90;99.90
26503;DHT22;14177;51.520;6.764;2023-07-29T12:52:50;24.60;99.90
26503;DHT22;14177;51.520;6.764;2023-07-29T12:55:17;24.60;99.90
26503;DHT22;14177;51.520;6.764;2023-07-29T12:57:50;24.70;99.90
26503;DHT22;14177;51.520;6.764;2023-07-29T13:00:18;24.90;99.90
26503;DHT22;14177;51.520;6.764;2023-07-29T13:02:45;25.10;99.90
26503;DHT22;14177;51.520;6.764;2023-07-29T13:05:13;25.50;99.90
26503;DHT22;14177;51.520;6.764;2023-07-29T13:07:40;25.70;99.90
26503;DHT22;14177;51.520;6.764;2023-07-29T13:10:10;25.70;99.90
26503;DHT22;14177;51.520;6.764;2023-07-29T13:12:37;25.40;99.90
26503;DHT22;14177;51.520;6.764;2023-07-29T13:15:05;25.30;99.90
26503;DHT22;14177;51.520;6.764;2023-07-29T13:17:33;25.10;99.90
26503;DHT22;14177;51.520;6.764;2023-07-29T13:20:01;24.80;99.90
26503;DHT22;14177;51.520;6.764;2023-07-29T13:22:28;24.70;99.90
26503;DHT22;14177;51.520;6.764;2023-07-29T13:24:55;24.30;99.90
26503;DHT22;14177;51.520;6.764;2023-07-29T13:27:22;24.30;99.90
26503;DHT22;14177;51.520;6.764;2023-07-29T13:29:50;24.30;99.90
26503;DHT22;14177;51.520;6.764;2023-07-29T13:32:18;24.40;99.90
26503;DHT22;14177;51.520;6.764;2023-07-29T13:34:45;24.10;99.90
26503;DHT22;14177;51.520;6.764;2023-07-29T13:37:12;23.90;99.90
26503;DHT22;14177;51.520;6.764;2023-07-29T13:39:39;23.90;99.90
26503;DHT22;14177;51.520;6.764;2023-07-29T13:42:06;23.70;99.90
26503;DHT22;14177;51.520;6.764;2023-07-29T13:44:33;23.50;99.90
26503;DHT22;14177;51.520;6.764;2023-07-29T13:47:00;23.00;99.90
26503;DHT22;14177;51.520;6.764;2023-07-29T13:49:27;22.80;99.90
26503;DHT22;14177;51.520;6.764;2023-07-29T13:51:54;22.60;99.90
26503;DHT22;14177;51.520;6.764;2023-07-29T13:54:21;22.10;99.90
26503;DHT22;14177;51.520;6.764;2023-07-29T13:56:48;21.50;99.90
26503;DHT22;14177;51.520;6.764;2023-07-29T13:59:15;21.20;99.90
26503;DHT22;14177;51.520;6.764;2023-07-29T14:01:42;21.00;99.90
26503;DHT22;14177;51.520;6.764;2023-07-29T14:04:09;20.70;99.90
26503;DHT22;14177;51.520;6.764;2023-07-29T14:06:36;20.50;99.90
26503;DHT22;14177;51.520;6.764;2023-07-29T14:09:11;20.30;99.90
26503;DHT22;14177;51.520;6.764;2023-07-29T14:11:39;19.90;99.90
26503;DHT22;14177;51.520;6.764;2023-07-29T14:14:07;19.70;99.90
26503;DHT22;14177;51.520;6.764;2023-07-29T14:16:35;19.50;99.90
26503;DHT22;14177;51.520;6.764;2023-07-29T14:19:03;19.50;99.90
26503;DHT22;14177;51.520;6.764;2023-07-29T14:21:30;19.60;99.90
26503;DHT22;14177;51.520;6.764;2023-07-29T14:23:57;19.70;99.90
26503;DHT22;14177;51.520;6.764;2023-07-29T14:26:24;19.70;99.90
26503;DHT22;14177;51.520;6.764;2023-07-29T14:28:51;19.90;99.90
26503;DHT22;14177;51.520;6.764;2023-07-29T14:31:19;20.20;99.90
26503;DHT22;14177;51.520;6.764;2023-07-29T14:33:47;20.70;99.90
26503;DHT22;14177;51.520;6.764;2023-07-29T14:36:16;21.20;99.90
26503;DHT22;14177;51.520;6.764;2023-07-29T14:38:43;21.50;99.90
26503;DHT22;14177;51.520;6.764;2023-07-29T14:41:10;21.90;99.90
26503;DHT22;14177;51.520;6.764;2023-07-29T14:43:37;22.20;99.90
26503;DHT22;14177;51.520;6.764;2023-07-29T14:46:05;22.50;99.90
26503;DHT22;14177;51.520;6.764;2023-07-29T14:48:32;22.70;99.90
26503;DHT22;14177;51.520;6.764;2023-07-29T14:50:59;22.90;99.90
26503;DHT22;14177;51.520;6.764;2023-07-29T14:53:26;23.30;99.90
26503;DHT22;14177;51.520;6.764;2023-07-29T14:55:53;23.30;99.90
26503;DHT22;14177;51.520;6.764;2023-07-29T14:58:21;23.10;99.90
26503;DHT22;14177;51.520;6.764;2023-07-29T15:00:49;22.90;99.90
26503;DHT22;14177;51.520;6.764;2023-07-29T15:03:16;22.70;99.90
26503;DHT22;14177;51.520;6.764;2023-07-29T15:05:43;22.50;99.90
26503;DHT22;14177;51.520;6.764;2023-07-29T15:08:10;22.40;99.90
26503;DHT22;14177;51.520;6.764;2023-07-29T15:10:37;22.30;99.90
26503;DHT22;14177;51.520;6.764;2023-07-29T15:13:04;22.20;99.90
26503;DHT22;14177;51.520;6.764;2023-07-29T15:15:31;22.20;99.90
26503;DHT22;14177;51.520;6.764;2023-07-29T15:17:58;22.10;99.90
26503;DHT22;14177;51.520;6.764;2023-07-29T15:20:26;22.00;99.90
26503;DHT22;14177;51.520;6.764;2023-07-29T15:22:53;22.00;99.90
26503;DHT22;14177;51.520;6.764;2023-07-29T15:25:20;22.00;99.90
26503;DHT22;14177;51.520;6.764;2023-07-29T15:27:47;22.00;99.90
26503;DHT22;14177;51.520;6.764;2023-07-29T15:30:14;21.90;99.90
26503;DHT22;14177;51.520;6.764;2023-07-29T15:32:41;21.80;99.90
26503;DHT22;14177;51.520;6.764;2023-07-29T15:35:11;21.80;99.90
26503;DHT22;14177;51.520;6.764;2023-07-29T15:37:38;22.00;99.90
26503;DHT22;14177;51.520;6.764;2023-07-29T15:40:06;22.10;99.90
26503;DHT22;14177;51.520;6.764;2023-07-29T15:42:34;22.20;99.90
26503;DHT22;14177;51.520;6.764;2023-07-29T15:45:01;22.40;99.90
26503;DHT22;14177;51.520;6.764;2023-07-29T15:47:28;22.60;99.90